Landing, New Jersey
Current Conditions -  °F | °C
As of 8:45 AM on Saturday 20 Dec 2014 (Local Time) from KMMU Reporting Station
Overcast Overcast  
Wind Chill: 25°   Ceiling: 3000
Heat Index: 30°   Visibility: 10mi
Dew Point: 23°   Wind: 5mph
Humidity: 75%   Direction: 10°N
Pressure: 30.28"   Gusts: NA
Location:  40.91°N, 74.66°W
Report Text: KMMU 201345Z 01004KT 10SM OVC030 M01/M05 A3028
Loading
Personal Weather Stations






























Interactive Weather Map New forecast layout! Learn more

10-Day Weather Forecast

Advertisements
Track Severe Weather on mobile